createdAt,value
2023-02-02T00:00:20.113Z,86.70
2023-02-02T00:03:22.311Z,86.60
2023-02-02T00:06:26.894Z,86.60
2023-02-02T00:09:31.508Z,86.60
2023-02-02T00:12:33.693Z,86.60
2023-02-02T00:15:35.888Z,86.40
2023-02-02T00:18:38.050Z,87.10
2023-02-02T00:21:40.592Z,86.30
2023-02-02T00:24:42.832Z,86.30
2023-02-02T00:27:45.074Z,86.20
2023-02-02T00:30:47.255Z,86.20
2023-02-02T00:33:50.837Z,86.10
2023-02-02T00:36:53.273Z,86.00
2023-02-02T00:39:55.464Z,86.00
2023-02-02T00:42:57.733Z,85.80
2023-02-02T00:46:00.222Z,85.80
2023-02-02T00:49:02.504Z,85.80
2023-02-02T00:52:04.813Z,85.70
2023-02-02T00:55:08.057Z,85.80
2023-02-02T00:58:10.206Z,85.70
2023-02-02T01:01:21.855Z,85.60
2023-02-02T01:04:24.103Z,85.60
2023-02-02T01:07:26.416Z,85.60
2023-02-02T01:10:28.931Z,85.60
2023-02-02T01:13:31.137Z,85.60
2023-02-02T01:16:33.323Z,85.40
2023-02-02T01:19:36.404Z,85.40
2023-02-02T01:22:38.759Z,85.40
2023-02-02T01:25:41.017Z,85.20
2023-02-02T01:28:43.628Z,85.90
2023-02-02T01:31:45.939Z,85.10
2023-02-02T01:34:48.184Z,85.00
2023-02-02T01:37:50.311Z,85.00
2023-02-02T01:40:55.956Z,84.90
2023-02-02T01:44:04.589Z,84.80
2023-02-02T01:47:06.902Z,84.80
2023-02-02T01:50:11.741Z,84.70
2023-02-02T01:53:14.005Z,84.60
2023-02-02T01:56:26.953Z,84.60
2023-02-02T01:59:31.116Z,84.60
2023-02-02T02:02:33.655Z,84.50
2023-02-02T02:05:43.904Z,84.50
2023-02-02T02:08:49.095Z,84.50
2023-02-02T02:11:54.231Z,84.50
2023-02-02T02:15:15.826Z,84.30
2023-02-02T02:18:40.983Z,84.30
2023-02-02T02:22:29.852Z,84.30
2023-02-02T02:25:59.748Z,84.30
2023-02-02T02:29:04.727Z,84.20
2023-02-02T02:32:27.452Z,84.20
2023-02-02T02:35:39.968Z,84.10
2023-02-02T02:38:51.809Z,84.10
2023-02-02T02:42:00.551Z,84.00
2023-02-02T02:45:04.914Z,84.10
2023-02-02T02:48:10.684Z,84.00
2023-02-02T02:51:51.023Z,84.00
2023-02-02T02:55:13.570Z,83.90
2023-02-02T02:58:21.491Z,83.90
2023-02-02T03:01:48.289Z,83.80
2023-02-02T03:04:56.628Z,83.80
2023-02-02T03:08:04.491Z,83.60
2023-02-02T03:11:09.872Z,83.70
2023-02-02T03:14:12.752Z,83.70
2023-02-02T03:17:14.949Z,83.60
2023-02-02T03:20:17.843Z,83.70
2023-02-02T03:23:20.051Z,83.60
2023-02-02T03:26:22.288Z,83.50
2023-02-02T03:29:24.780Z,83.60
2023-02-02T03:32:26.994Z,83.50
2023-02-02T03:35:29.246Z,83.40
2023-02-02T03:38:31.426Z,83.30
2023-02-02T03:41:33.500Z,83.20
2023-02-02T03:44:35.798Z,83.20
2023-02-02T03:47:38.070Z,83.10
2023-02-02T03:50:40.285Z,83.10
2023-02-02T03:53:47.953Z,83.00
2023-02-02T03:56:50.244Z,83.00
2023-02-02T03:59:52.395Z,82.90
2023-02-02T04:02:55.091Z,82.90
2023-02-02T04:05:57.602Z,82.90
2023-02-02T04:08:59.788Z,82.90
2023-02-02T04:12:02.047Z,82.80
2023-02-02T04:15:04.600Z,82.80
2023-02-02T04:18:06.900Z,82.80
2023-02-02T04:21:09.582Z,82.80
2023-02-02T04:24:13.389Z,82.70
2023-02-02T04:27:15.520Z,82.80
2023-02-02T04:30:20.023Z,82.70
2023-02-02T04:33:23.423Z,82.70
2023-02-02T04:36:25.648Z,82.70
2023-02-02T04:39:27.786Z,82.60
2023-02-02T04:42:32.298Z,82.60
2023-02-02T04:45:35.041Z,82.60
2023-02-02T04:48:37.721Z,82.60
2023-02-02T04:51:41.116Z,82.50
2023-02-02T04:54:43.233Z,82.40
2023-02-02T04:57:45.497Z,82.40
2023-02-02T05:00:47.763Z,82.30
2023-02-02T05:03:49.997Z,82.20
2023-02-02T05:06:52.184Z,82.30
2023-02-02T05:09:54.294Z,82.20
2023-02-02T05:12:56.756Z,82.20
2023-02-02T05:15:58.812Z,82.20
2023-02-02T05:19:00.916Z,82.20
2023-02-02T05:22:03.052Z,82.20
2023-02-02T05:25:06.895Z,82.20
2023-02-02T05:28:09.733Z,82.20
2023-02-02T05:31:12.101Z,82.10
2023-02-02T05:34:14.335Z,82.10
2023-02-02T05:37:16.566Z,82.20
2023-02-02T05:40:18.911Z,82.30
2023-02-02T05:43:24.363Z,82.20
2023-02-02T05:46:26.491Z,82.20
2023-02-02T05:49:28.783Z,82.20
2023-02-02T05:52:35.165Z,82.10
2023-02-02T05:55:37.539Z,81.70
2023-02-02T05:58:39.851Z,81.30
2023-02-02T06:01:41.996Z,81.00
2023-02-02T06:04:44.198Z,81.20
2023-02-02T06:07:46.323Z,81.00
2023-02-02T06:10:48.512Z,81.00
2023-02-02T06:13:50.752Z,80.90
2023-02-02T06:16:52.960Z,81.00
2023-02-02T06:19:55.160Z,80.90
2023-02-02T06:22:57.286Z,80.90
2023-02-02T06:26:00.712Z,80.90
2023-02-02T06:29:03.122Z,81.10
2023-02-02T06:32:05.428Z,81.10
2023-02-02T06:35:08.341Z,81.10
2023-02-02T06:38:11.467Z,81.10
2023-02-02T06:41:13.712Z,81.10
2023-02-02T06:44:15.887Z,81.00
2023-02-02T06:47:18.076Z,81.00
2023-02-02T06:50:20.408Z,80.90
2023-02-02T06:53:23.392Z,81.00
2023-02-02T06:56:25.759Z,81.00
2023-02-02T06:59:27.893Z,81.00
2023-02-02T07:02:30.059Z,81.00
2023-02-02T07:05:32.442Z,81.10
2023-02-02T07:08:34.757Z,81.10
2023-02-02T07:11:38.523Z,81.10
2023-02-02T07:14:45.538Z,81.10
2023-02-02T07:17:47.725Z,81.20
2023-02-02T07:20:50.057Z,81.30
2023-02-02T07:23:52.233Z,81.30
2023-02-02T07:26:54.423Z,81.40
2023-02-02T07:29:56.653Z,81.50
2023-02-02T07:32:58.933Z,81.60
2023-02-02T07:36:02.093Z,82.30
2023-02-02T07:39:05.445Z,81.70
2023-02-02T07:42:08.780Z,81.80
2023-02-02T07:45:27.244Z,81.90
2023-02-02T07:48:30.964Z,82.10
2023-02-02T07:51:33.265Z,82.20
2023-02-02T07:54:35.528Z,82.30
2023-02-02T07:57:37.874Z,82.40
2023-02-02T08:00:40.037Z,82.50
2023-02-02T08:03:45.782Z,82.50
2023-02-02T08:06:48.442Z,82.80
2023-02-02T08:09:51.727Z,82.70
2023-02-02T08:12:54.000Z,82.90
2023-02-02T08:15:58.592Z,83.00
2023-02-02T08:19:01.183Z,83.10
2023-02-02T08:22:03.472Z,83.20
2023-02-02T08:25:06.234Z,83.40
2023-02-02T08:28:08.420Z,83.40
2023-02-02T08:31:17.887Z,83.60
2023-02-02T08:34:20.117Z,83.70
2023-02-02T08:37:22.264Z,83.80
2023-02-02T08:40:25.451Z,83.90
2023-02-02T08:43:29.483Z,84.10
2023-02-02T08:46:31.874Z,84.10
2023-02-02T08:49:34.069Z,84.30
2023-02-02T08:52:36.180Z,84.40
2023-02-02T08:55:38.688Z,84.50
2023-02-02T08:58:48.511Z,84.70
2023-02-02T09:01:50.738Z,85.50
2023-02-02T09:04:52.905Z,85.00
2023-02-02T09:07:55.153Z,85.10
2023-02-02T09:11:02.492Z,85.20
2023-02-02T09:14:06.817Z,85.40
2023-02-02T09:17:09.177Z,85.50
2023-02-02T09:20:11.998Z,85.70
2023-02-02T09:23:14.088Z,85.70
2023-02-02T09:26:16.306Z,85.70
2023-02-02T09:29:18.506Z,85.80
2023-02-02T09:32:20.677Z,85.90
2023-02-02T09:35:23.235Z,86.00
2023-02-02T09:38:26.193Z,86.10
2023-02-02T09:41:34.125Z,86.30
2023-02-02T09:44:39.307Z,86.30
2023-02-02T09:48:19.558Z,86.40
2023-02-02T09:51:23.519Z,86.50
2023-02-02T09:54:39.252Z,86.40
2023-02-02T09:57:55.552Z,86.60
2023-02-02T10:01:17.984Z,86.70
2023-02-02T10:04:37.227Z,86.80
2023-02-02T10:07:50.218Z,86.90
2023-02-02T10:10:53.370Z,87.00
2023-02-02T10:13:59.978Z,87.00
2023-02-02T10:17:23.373Z,87.00
2023-02-02T10:20:55.813Z,87.10
2023-02-02T10:23:59.662Z,87.40
2023-02-02T10:27:08.923Z,87.30
2023-02-02T10:30:19.916Z,87.30
2023-02-02T10:33:38.846Z,87.30
2023-02-02T10:36:40.960Z,87.30
2023-02-02T10:40:12.072Z,87.30
2023-02-02T10:43:36.078Z,87.40
2023-02-02T10:46:42.813Z,87.40
2023-02-02T10:49:45.535Z,87.40
2023-02-02T10:53:13.217Z,87.50
2023-02-02T10:56:18.218Z,87.40
2023-02-02T10:59:28.427Z,87.50
2023-02-02T11:02:30.576Z,87.50
2023-02-02T11:05:51.409Z,87.40
2023-02-02T11:08:59.573Z,87.40
2023-02-02T11:12:05.595Z,87.50
2023-02-02T11:15:23.272Z,87.50
2023-02-02T11:18:30.891Z,87.40
2023-02-02T11:21:34.201Z,87.50
2023-02-02T11:24:49.976Z,87.50
2023-02-02T11:27:52.446Z,87.40
2023-02-02T11:30:55.342Z,87.40
2023-02-02T11:34:20.376Z,87.40
2023-02-02T11:37:25.087Z,87.40
2023-02-02T11:40:31.405Z,87.40
2023-02-02T11:43:35.280Z,87.50
2023-02-02T11:46:38.768Z,87.40
2023-02-02T11:49:44.240Z,87.40
2023-02-02T11:52:46.525Z,87.40
2023-02-02T11:55:48.844Z,87.30
2023-02-02T11:58:52.917Z,87.20
2023-02-02T12:02:13.231Z,87.20
2023-02-02T12:05:33.212Z,87.10
2023-02-02T12:08:35.434Z,86.90
2023-02-02T12:11:56.365Z,87.10
2023-02-02T12:15:04.573Z,87.00
2023-02-02T12:18:25.691Z,87.70
2023-02-02T12:21:57.191Z,87.00
2023-02-02T12:25:31.558Z,87.10
2023-02-02T12:28:58.504Z,87.10
2023-02-02T12:32:13.371Z,87.00
2023-02-02T12:35:28.130Z,87.00
2023-02-02T12:38:45.059Z,87.00
2023-02-02T12:41:56.167Z,87.10
2023-02-02T12:45:34.997Z,87.10
2023-02-02T12:48:51.603Z,87.20
2023-02-02T12:52:35.219Z,87.20
2023-02-02T12:55:52.519Z,87.10
2023-02-02T12:58:59.428Z,87.10
2023-02-02T13:02:26.298Z,87.20
2023-02-02T13:06:06.193Z,87.20
2023-02-02T13:09:19.712Z,87.20
2023-02-02T13:12:24.263Z,87.20
2023-02-02T13:15:34.464Z,87.20
2023-02-02T13:18:39.035Z,87.20
2023-02-02T13:21:43.401Z,87.10
2023-02-02T13:24:48.323Z,87.30
2023-02-02T13:27:52.960Z,87.30
2023-02-02T13:30:59.206Z,87.30
2023-02-02T13:34:16.858Z,87.40
2023-02-02T13:37:26.681Z,87.50
2023-02-02T13:40:41.939Z,87.40
2023-02-02T13:44:16.637Z,87.50
2023-02-02T13:47:37.406Z,87.60
2023-02-02T13:51:01.157Z,87.60
2023-02-02T13:54:38.988Z,87.60
2023-02-02T13:58:05.342Z,87.60
2023-02-02T14:01:11.051Z,87.60
2023-02-02T14:04:28.526Z,87.50
2023-02-02T14:07:42.946Z,87.60
2023-02-02T14:10:58.440Z,87.60
2023-02-02T14:14:35.231Z,87.70
2023-02-02T14:17:37.532Z,87.70
2023-02-02T14:20:49.212Z,87.90
2023-02-02T14:23:55.594Z,87.80
2023-02-02T14:27:00.045Z,87.90
2023-02-02T14:30:17.680Z,87.90
2023-02-02T14:33:22.599Z,87.90
2023-02-02T14:36:26.148Z,87.90
2023-02-02T14:39:34.258Z,88.10
2023-02-02T14:43:49.805Z,88.00
2023-02-02T14:46:52.053Z,88.00
2023-02-02T14:49:57.721Z,87.90
2023-02-02T14:53:05.031Z,88.00
2023-02-02T14:56:17.615Z,88.00
2023-02-02T14:59:26.598Z,88.00
2023-02-02T15:02:38.863Z,87.90
2023-02-02T15:05:46.390Z,88.00
2023-02-02T15:09:33.739Z,87.90
2023-02-02T15:12:43.463Z,87.90
2023-02-02T15:15:48.863Z,87.90
2023-02-02T15:19:00.272Z,87.80
2023-02-02T15:22:26.923Z,87.80
2023-02-02T15:25:45.853Z,87.70
2023-02-02T15:28:52.079Z,87.60
2023-02-02T15:31:55.858Z,87.60
2023-02-02T15:35:04.986Z,87.60
2023-02-02T15:38:15.371Z,87.60
2023-02-02T15:41:34.115Z,87.50
2023-02-02T15:44:37.908Z,87.50
2023-02-02T15:47:42.632Z,87.40
2023-02-02T15:50:46.759Z,87.40
2023-02-02T15:53:51.920Z,87.30
2023-02-02T15:56:55.569Z,87.30
2023-02-02T15:59:58.595Z,87.30
2023-02-02T16:03:14.653Z,87.20
2023-02-02T16:06:18.407Z,87.10
2023-02-02T16:09:27.289Z,87.00
2023-02-02T16:12:29.450Z,87.00
2023-02-02T16:15:32.933Z,87.00
2023-02-02T16:18:36.099Z,86.90
2023-02-02T16:21:53.571Z,86.50
2023-02-02T16:24:59.461Z,86.30
2023-02-02T16:28:03.265Z,86.30
2023-02-02T16:31:07.092Z,86.20
2023-02-02T16:34:18.607Z,86.10
2023-02-02T16:37:29.880Z,86.00
2023-02-02T16:40:32.023Z,86.00
2023-02-02T16:43:36.026Z,86.10
2023-02-02T16:46:49.728Z,86.10
2023-02-02T16:50:28.614Z,86.00
2023-02-02T16:53:31.216Z,86.00
2023-02-02T16:56:40.337Z,85.90
2023-02-02T16:59:48.831Z,86.00
2023-02-02T17:02:58.454Z,85.90
2023-02-02T17:06:01.882Z,85.90
2023-02-02T17:09:38.047Z,86.10
2023-02-02T17:12:40.244Z,86.00
2023-02-02T17:15:42.440Z,85.90
2023-02-02T17:18:44.658Z,86.00
2023-02-02T17:21:49.624Z,85.90
2023-02-02T17:24:52.734Z,86.00
2023-02-02T17:27:56.054Z,86.00
2023-02-02T17:31:00.174Z,85.90
2023-02-02T17:34:02.432Z,86.00
2023-02-02T17:37:04.534Z,85.90
2023-02-02T17:40:07.404Z,85.90
2023-02-02T17:43:12.095Z,85.90
2023-02-02T17:46:14.390Z,85.90
2023-02-02T17:49:16.549Z,85.90
2023-02-02T17:52:18.769Z,85.80
2023-02-02T17:55:27.830Z,85.80
2023-02-02T17:58:30.106Z,85.80
2023-02-02T18:01:32.554Z,85.80
2023-02-02T18:04:35.890Z,85.90
2023-02-02T18:07:38.030Z,85.80
2023-02-02T18:10:41.583Z,85.80
2023-02-02T18:13:44.378Z,86.50
2023-02-02T18:16:46.469Z,85.80
2023-02-02T18:19:51.276Z,85.80
2023-02-02T18:22:53.677Z,85.70
2023-02-02T18:25:55.821Z,85.70
2023-02-02T18:28:59.275Z,85.80
2023-02-02T18:32:02.382Z,85.70
2023-02-02T18:35:06.162Z,85.60
2023-02-02T18:38:08.771Z,85.60
2023-02-02T18:41:15.083Z,85.50
2023-02-02T18:44:17.418Z,85.60
2023-02-02T18:47:19.649Z,85.50
2023-02-02T18:50:22.252Z,85.50
2023-02-02T18:53:24.666Z,85.60
2023-02-02T18:56:28.138Z,85.60
2023-02-02T18:59:32.397Z,85.60
2023-02-02T19:02:34.598Z,85.60
2023-02-02T19:06:02.683Z,85.60
2023-02-02T19:09:06.169Z,85.70
2023-02-02T19:12:13.888Z,86.40
2023-02-02T19:15:16.048Z,85.70
2023-02-02T19:18:20.833Z,85.80
2023-02-02T19:21:23.140Z,85.60
2023-02-02T19:24:27.329Z,85.60
2023-02-02T19:27:31.713Z,85.60
2023-02-02T19:30:33.969Z,85.50
2023-02-02T19:33:40.578Z,85.50
2023-02-02T19:36:46.856Z,85.40
2023-02-02T19:39:50.989Z,85.40
2023-02-02T19:43:08.013Z,85.30
2023-02-02T19:46:25.651Z,85.30
2023-02-02T19:49:34.286Z,85.20
2023-02-02T19:52:37.591Z,85.30
2023-02-02T19:55:42.010Z,85.10
2023-02-02T19:58:49.330Z,85.10
2023-02-02T20:01:52.535Z,85.00
2023-02-02T20:05:08.263Z,85.00
2023-02-02T20:08:38.174Z,84.90
2023-02-02T20:11:42.497Z,84.90
2023-02-02T20:14:44.815Z,84.90
2023-02-02T20:17:47.061Z,84.70
2023-02-02T20:20:57.273Z,84.70
2023-02-02T20:23:59.580Z,84.70
2023-02-02T20:27:11.846Z,84.60
2023-02-02T20:30:26.788Z,84.70
2023-02-02T20:33:29.147Z,84.60
2023-02-02T20:36:39.093Z,84.50
2023-02-02T20:39:47.941Z,84.60
2023-02-02T20:42:50.716Z,84.60
2023-02-02T20:45:53.001Z,84.50
2023-02-02T20:48:55.266Z,84.60
2023-02-02T20:52:00.076Z,84.60
2023-02-02T20:55:02.405Z,84.70
2023-02-02T20:58:05.551Z,84.80
2023-02-02T21:01:08.254Z,84.60
2023-02-02T21:04:10.597Z,84.80
2023-02-02T21:07:13.219Z,84.80
2023-02-02T21:10:15.793Z,84.80
2023-02-02T21:13:17.932Z,84.80
2023-02-02T21:16:20.149Z,84.80
2023-02-02T21:19:22.315Z,84.90
2023-02-02T21:22:24.453Z,84.80
2023-02-02T21:25:26.697Z,84.80
2023-02-02T21:28:31.362Z,84.80
2023-02-02T21:31:35.424Z,84.80
2023-02-02T21:34:37.937Z,84.90
2023-02-02T21:37:40.687Z,84.80
2023-02-02T21:40:42.945Z,84.90
2023-02-02T21:43:45.199Z,84.80
2023-02-02T21:46:52.549Z,84.80
2023-02-02T21:49:57.098Z,84.80
2023-02-02T21:53:18.553Z,84.80
2023-02-02T21:56:29.162Z,84.80
2023-02-02T21:59:36.891Z,84.70
2023-02-02T22:02:44.627Z,84.70
2023-02-02T22:05:47.100Z,84.70
2023-02-02T22:08:49.840Z,84.70
2023-02-02T22:12:02.167Z,84.70
2023-02-02T22:15:18.495Z,84.70
2023-02-02T22:18:24.985Z,84.70
2023-02-02T22:21:27.315Z,84.70
2023-02-02T22:24:29.713Z,84.60
2023-02-02T22:27:41.678Z,84.70
2023-02-02T22:30:44.262Z,84.60
2023-02-02T22:33:46.452Z,84.60
2023-02-02T22:36:48.627Z,84.50
2023-02-02T22:39:50.825Z,84.60
2023-02-02T22:42:55.427Z,84.50
2023-02-02T22:45:57.646Z,84.50
2023-02-02T22:48:59.832Z,84.50
2023-02-02T22:52:01.930Z,84.40
2023-02-02T22:55:04.170Z,84.40
2023-02-02T22:58:06.641Z,84.40
2023-02-02T23:01:09.561Z,84.40
2023-02-02T23:04:11.805Z,84.50
2023-02-02T23:07:14.112Z,84.40
2023-02-02T23:10:19.373Z,84.50
2023-02-02T23:13:21.532Z,84.60
2023-02-02T23:16:23.888Z,84.50
2023-02-02T23:19:26.060Z,84.60
2023-02-02T23:22:28.115Z,84.60
2023-02-02T23:25:30.298Z,84.60
2023-02-02T23:28:32.404Z,84.60
2023-02-02T23:31:34.696Z,84.60
2023-02-02T23:34:36.876Z,84.60
2023-02-02T23:37:39.189Z,84.60
2023-02-02T23:40:41.285Z,84.40
2023-02-02T23:43:43.418Z,84.50
2023-02-02T23:46:45.683Z,84.50
2023-02-02T23:49:47.930Z,84.60
2023-02-02T23:52:50.098Z,84.50
2023-02-02T23:55:52.376Z,84.50
2023-02-02T23:58:54.523Z,84.50
